sensor_id;sensor_type;location;lat;lon;timestamp;P1;durP1;ratioP1;P2;durP2;ratioP2
35558;SDS011;21661;50.794;-1.066;2022-08-03T00:02:21;10.60;;;3.17;;
35558;SDS011;21661;50.794;-1.066;2022-08-03T00:04:47;15.07;;;3.85;;
35558;SDS011;21661;50.794;-1.066;2022-08-03T00:07:13;17.63;;;3.38;;
35558;SDS011;21661;50.794;-1.066;2022-08-03T00:09:39;16.50;;;3.72;;
35558;SDS011;21661;50.794;-1.066;2022-08-03T00:12:05;15.38;;;3.50;;
35558;SDS011;21661;50.794;-1.066;2022-08-03T00:14:31;18.08;;;3.90;;
35558;SDS011;21661;50.794;-1.066;2022-08-03T00:16:56;16.88;;;3.67;;
35558;SDS011;21661;50.794;-1.066;2022-08-03T00:19:22;14.45;;;3.15;;
35558;SDS011;21661;50.794;-1.066;2022-08-03T00:21:48;12.65;;;3.35;;
35558;SDS011;21661;50.794;-1.066;2022-08-03T00:24:14;13.30;;;3.15;;
35558;SDS011;21661;50.794;-1.066;2022-08-03T00:26:39;13.88;;;3.50;;
35558;SDS011;21661;50.794;-1.066;2022-08-03T00:29:05;16.52;;;3.35;;
35558;SDS011;21661;50.794;-1.066;2022-08-03T00:31:31;13.60;;;2.80;;
35558;SDS011;21661;50.794;-1.066;2022-08-03T00:33:56;14.90;;;3.42;;
35558;SDS011;21661;50.794;-1.066;2022-08-03T00:36:22;12.88;;;3.25;;
35558;SDS011;21661;50.794;-1.066;2022-08-03T00:38:48;15.45;;;3.47;;
35558;SDS011;21661;50.794;-1.066;2022-08-03T00:41:14;18.10;;;3.38;;
35558;SDS011;21661;50.794;-1.066;2022-08-03T00:43:39;18.33;;;3.80;;
35558;SDS011;21661;50.794;-1.066;2022-08-03T00:46:05;19.77;;;3.63;;
35558;SDS011;21661;50.794;-1.066;2022-08-03T00:48:30;16.17;;;3.63;;
35558;SDS011;21661;50.794;-1.066;2022-08-03T00:50:56;16.10;;;3.33;;
35558;SDS011;21661;50.794;-1.066;2022-08-03T00:53:22;14.68;;;3.63;;
35558;SDS011;21661;50.794;-1.066;2022-08-03T00:55:48;12.63;;;4.07;;
35558;SDS011;21661;50.794;-1.066;2022-08-03T00:58:14;14.35;;;2.92;;
35558;SDS011;21661;50.794;-1.066;2022-08-03T01:00:40;15.95;;;3.60;;
35558;SDS011;21661;50.794;-1.066;2022-08-03T01:03:07;14.07;;;3.42;;
35558;SDS011;21661;50.794;-1.066;2022-08-03T01:05:57;15.63;;;3.95;;
35558;SDS011;21661;50.794;-1.066;2022-08-03T01:11:47;17.42;;;3.08;;
35558;SDS011;21661;50.794;-1.066;2022-08-03T01:14:08;15.38;;;3.88;;
35558;SDS011;21661;50.794;-1.066;2022-08-03T01:22:15;12.57;;;3.17;;
35558;SDS011;21661;50.794;-1.066;2022-08-03T01:30:29;16.77;;;3.78;;
35558;SDS011;21661;50.794;-1.066;2022-08-03T01:32:59;12.05;;;2.80;;
35558;SDS011;21661;50.794;-1.066;2022-08-03T01:40:57;13.52;;;3.65;;
35558;SDS011;21661;50.794;-1.066;2022-08-03T01:43:39;17.00;;;3.13;;
35558;SDS011;21661;50.794;-1.066;2022-08-03T01:46:09;14.77;;;3.08;;
35558;SDS011;21661;50.794;-1.066;2022-08-03T01:48:36;15.90;;;3.60;;
35558;SDS011;21661;50.794;-1.066;2022-08-03T01:51:06;15.55;;;3.30;;
35558;SDS011;21661;50.794;-1.066;2022-08-03T01:53:34;11.80;;;3.60;;
35558;SDS011;21661;50.794;-1.066;2022-08-03T01:56:03;13.50;;;3.25;;
35558;SDS011;21661;50.794;-1.066;2022-08-03T01:58:31;17.67;;;3.40;;
35558;SDS011;21661;50.794;-1.066;2022-08-03T02:01:00;16.00;;;3.10;;
35558;SDS011;21661;50.794;-1.066;2022-08-03T02:03:28;16.13;;;3.80;;
35558;SDS011;21661;50.794;-1.066;2022-08-03T02:05:55;17.17;;;3.40;;
35558;SDS011;21661;50.794;-1.066;2022-08-03T02:08:23;15.60;;;3.58;;
35558;SDS011;21661;50.794;-1.066;2022-08-03T02:10:51;16.15;;;3.05;;
35558;SDS011;21661;50.794;-1.066;2022-08-03T02:13:21;18.23;;;3.47;;
35558;SDS011;21661;50.794;-1.066;2022-08-03T02:15:48;14.80;;;3.10;;
35558;SDS011;21661;50.794;-1.066;2022-08-03T02:18:17;17.35;;;3.28;;
35558;SDS011;21661;50.794;-1.066;2022-08-03T02:20:44;17.65;;;3.22;;
35558;SDS011;21661;50.794;-1.066;2022-08-03T02:23:10;15.55;;;3.65;;
35558;SDS011;21661;50.794;-1.066;2022-08-03T02:25:46;8.57;;;2.55;;
35558;SDS011;21661;50.794;-1.066;2022-08-03T02:28:21;11.57;;;2.83;;
35558;SDS011;21661;50.794;-1.066;2022-08-03T02:30:53;14.82;;;3.92;;
35558;SDS011;21661;50.794;-1.066;2022-08-03T02:33:25;11.60;;;3.33;;
35558;SDS011;21661;50.794;-1.066;2022-08-03T02:36:01;16.17;;;3.53;;
35558;SDS011;21661;50.794;-1.066;2022-08-03T02:38:32;12.45;;;3.17;;
35558;SDS011;21661;50.794;-1.066;2022-08-03T02:41:02;13.68;;;2.80;;
35558;SDS011;21661;50.794;-1.066;2022-08-03T02:43:31;10.33;;;2.47;;
35558;SDS011;21661;50.794;-1.066;2022-08-03T02:46:01;6.78;;;2.10;;
35558;SDS011;21661;50.794;-1.066;2022-08-03T02:48:28;9.20;;;2.40;;
35558;SDS011;21661;50.794;-1.066;2022-08-03T02:50:57;17.30;;;2.35;;
35558;SDS011;21661;50.794;-1.066;2022-08-03T02:53:23;12.25;;;2.30;;
35558;SDS011;21661;50.794;-1.066;2022-08-03T02:55:51;10.82;;;2.33;;
35558;SDS011;21661;50.794;-1.066;2022-08-03T02:58:19;9.55;;;2.40;;
35558;SDS011;21661;50.794;-1.066;2022-08-03T03:00:47;10.80;;;2.20;;
35558;SDS011;21661;50.794;-1.066;2022-08-03T03:03:15;8.95;;;2.40;;
35558;SDS011;21661;50.794;-1.066;2022-08-03T03:05:41;10.90;;;2.10;;
35558;SDS011;21661;50.794;-1.066;2022-08-03T03:08:13;9.60;;;1.73;;
35558;SDS011;21661;50.794;-1.066;2022-08-03T03:10:41;8.32;;;2.00;;
35558;SDS011;21661;50.794;-1.066;2022-08-03T03:13:08;9.57;;;1.73;;
35558;SDS011;21661;50.794;-1.066;2022-08-03T03:15:35;6.13;;;1.50;;
35558;SDS011;21661;50.794;-1.066;2022-08-03T03:18:03;8.70;;;1.90;;
35558;SDS011;21661;50.794;-1.066;2022-08-03T03:20:31;8.63;;;2.40;;
35558;SDS011;21661;50.794;-1.066;2022-08-03T03:22:59;10.43;;;2.13;;
35558;SDS011;21661;50.794;-1.066;2022-08-03T03:25:27;12.32;;;2.60;;
35558;SDS011;21661;50.794;-1.066;2022-08-03T03:27:55;11.93;;;2.00;;
35558;SDS011;21661;50.794;-1.066;2022-08-03T03:30:21;8.07;;;1.50;;
35558;SDS011;21661;50.794;-1.066;2022-08-03T03:32:47;11.30;;;2.38;;
35558;SDS011;21661;50.794;-1.066;2022-08-03T03:35:14;6.72;;;1.65;;
35558;SDS011;21661;50.794;-1.066;2022-08-03T03:37:40;8.90;;;2.15;;
35558;SDS011;21661;50.794;-1.066;2022-08-03T03:40:06;4.50;;;1.60;;
35558;SDS011;21661;50.794;-1.066;2022-08-03T03:42:33;6.03;;;1.90;;
35558;SDS011;21661;50.794;-1.066;2022-08-03T03:45:01;8.63;;;1.88;;
35558;SDS011;21661;50.794;-1.066;2022-08-03T03:47:30;6.65;;;1.85;;
35558;SDS011;21661;50.794;-1.066;2022-08-03T03:49:58;10.23;;;2.45;;
35558;SDS011;21661;50.794;-1.066;2022-08-03T03:52:25;9.77;;;2.17;;
35558;SDS011;21661;50.794;-1.066;2022-08-03T03:54:51;9.98;;;2.22;;
35558;SDS011;21661;50.794;-1.066;2022-08-03T03:57:16;10.10;;;1.85;;
35558;SDS011;21661;50.794;-1.066;2022-08-03T03:59:42;9.85;;;2.03;;
35558;SDS011;21661;50.794;-1.066;2022-08-03T04:02:08;9.15;;;2.30;;
35558;SDS011;21661;50.794;-1.066;2022-08-03T04:04:35;8.43;;;2.33;;
35558;SDS011;21661;50.794;-1.066;2022-08-03T04:07:20;9.98;;;2.88;;
35558;SDS011;21661;50.794;-1.066;2022-08-03T04:10:26;8.35;;;2.00;;
35558;SDS011;21661;50.794;-1.066;2022-08-03T04:13:14;11.45;;;2.20;;
35558;SDS011;21661;50.794;-1.066;2022-08-03T04:15:41;8.98;;;2.47;;
35558;SDS011;21661;50.794;-1.066;2022-08-03T04:18:08;8.80;;;2.38;;
35558;SDS011;21661;50.794;-1.066;2022-08-03T04:20:37;10.00;;;1.90;;
35558;SDS011;21661;50.794;-1.066;2022-08-03T04:23:08;9.20;;;2.55;;
35558;SDS011;21661;50.794;-1.066;2022-08-03T04:25:36;10.30;;;2.50;;
35558;SDS011;21661;50.794;-1.066;2022-08-03T04:28:04;11.32;;;2.63;;
35558;SDS011;21661;50.794;-1.066;2022-08-03T04:30:30;10.57;;;1.98;;
35558;SDS011;21661;50.794;-1.066;2022-08-03T04:33:00;7.30;;;1.80;;
35558;SDS011;21661;50.794;-1.066;2022-08-03T04:35:30;8.95;;;2.00;;
35558;SDS011;21661;50.794;-1.066;2022-08-03T04:37:59;8.98;;;1.85;;
35558;SDS011;21661;50.794;-1.066;2022-08-03T04:40:32;13.02;;;2.25;;
35558;SDS011;21661;50.794;-1.066;2022-08-03T04:42:58;6.22;;;1.73;;
35558;SDS011;21661;50.794;-1.066;2022-08-03T04:45:26;8.32;;;2.28;;
35558;SDS011;21661;50.794;-1.066;2022-08-03T04:47:53;5.60;;;1.77;;
35558;SDS011;21661;50.794;-1.066;2022-08-03T04:50:19;7.05;;;2.00;;
35558;SDS011;21661;50.794;-1.066;2022-08-03T04:52:45;6.03;;;1.70;;
35558;SDS011;21661;50.794;-1.066;2022-08-03T04:55:11;11.65;;;1.80;;
35558;SDS011;21661;50.794;-1.066;2022-08-03T04:57:48;9.77;;;1.90;;
35558;SDS011;21661;50.794;-1.066;2022-08-03T05:00:14;10.07;;;1.92;;
35558;SDS011;21661;50.794;-1.066;2022-08-03T05:02:41;11.50;;;2.38;;
35558;SDS011;21661;50.794;-1.066;2022-08-03T05:05:07;5.30;;;1.73;;
35558;SDS011;21661;50.794;-1.066;2022-08-03T05:07:33;12.00;;;2.42;;
35558;SDS011;21661;50.794;-1.066;2022-08-03T05:09:59;9.27;;;2.40;;
35558;SDS011;21661;50.794;-1.066;2022-08-03T05:12:25;12.07;;;2.90;;
35558;SDS011;21661;50.794;-1.066;2022-08-03T05:14:50;7.97;;;2.17;;
35558;SDS011;21661;50.794;-1.066;2022-08-03T05:17:16;10.57;;;2.08;;
35558;SDS011;21661;50.794;-1.066;2022-08-03T05:19:43;11.07;;;2.10;;
35558;SDS011;21661;50.794;-1.066;2022-08-03T05:24:55;6.47;;;1.92;;
35558;SDS011;21661;50.794;-1.066;2022-08-03T05:27:20;6.05;;;2.60;;
35558;SDS011;21661;50.794;-1.066;2022-08-03T05:29:46;9.00;;;1.90;;
35558;SDS011;21661;50.794;-1.066;2022-08-03T05:32:13;7.05;;;1.65;;
35558;SDS011;21661;50.794;-1.066;2022-08-03T05:34:39;6.97;;;1.98;;
35558;SDS011;21661;50.794;-1.066;2022-08-03T05:37:05;8.57;;;2.00;;
35558;SDS011;21661;50.794;-1.066;2022-08-03T05:39:33;5.45;;;1.40;;
35558;SDS011;21661;50.794;-1.066;2022-08-03T05:41:59;8.30;;;1.83;;
35558;SDS011;21661;50.794;-1.066;2022-08-03T05:44:25;7.63;;;1.40;;
35558;SDS011;21661;50.794;-1.066;2022-08-03T05:46:51;6.55;;;1.83;;
35558;SDS011;21661;50.794;-1.066;2022-08-03T05:49:17;7.65;;;2.00;;
35558;SDS011;21661;50.794;-1.066;2022-08-03T05:51:44;10.40;;;1.80;;
35558;SDS011;21661;50.794;-1.066;2022-08-03T05:54:10;7.40;;;1.85;;
35558;SDS011;21661;50.794;-1.066;2022-08-03T05:56:36;6.10;;;1.90;;
35558;SDS011;21661;50.794;-1.066;2022-08-03T05:59:02;9.20;;;2.53;;
35558;SDS011;21661;50.794;-1.066;2022-08-03T06:01:28;8.80;;;2.67;;
35558;SDS011;21661;50.794;-1.066;2022-08-03T06:03:56;12.60;;;2.42;;
35558;SDS011;21661;50.794;-1.066;2022-08-03T06:06:22;15.68;;;2.10;;
35558;SDS011;21661;50.794;-1.066;2022-08-03T06:08:47;8.32;;;2.10;;
35558;SDS011;21661;50.794;-1.066;2022-08-03T06:11:13;9.50;;;2.15;;
35558;SDS011;21661;50.794;-1.066;2022-08-03T06:13:40;7.55;;;1.85;;
35558;SDS011;21661;50.794;-1.066;2022-08-03T06:16:06;6.80;;;1.65;;
35558;SDS011;21661;50.794;-1.066;2022-08-03T06:18:32;7.32;;;1.58;;
35558;SDS011;21661;50.794;-1.066;2022-08-03T06:20:58;9.73;;;2.20;;
35558;SDS011;21661;50.794;-1.066;2022-08-03T06:23:24;6.40;;;1.70;;
35558;SDS011;21661;50.794;-1.066;2022-08-03T06:25:49;5.88;;;1.80;;
35558;SDS011;21661;50.794;-1.066;2022-08-03T06:28:15;9.43;;;1.90;;
35558;SDS011;21661;50.794;-1.066;2022-08-03T06:30:42;4.57;;;1.67;;
35558;SDS011;21661;50.794;-1.066;2022-08-03T06:33:08;9.30;;;2.08;;
35558;SDS011;21661;50.794;-1.066;2022-08-03T06:35:34;9.32;;;2.10;;
35558;SDS011;21661;50.794;-1.066;2022-08-03T06:38:00;8.77;;;2.35;;
35558;SDS011;21661;50.794;-1.066;2022-08-03T06:40:25;10.13;;;2.20;;
35558;SDS011;21661;50.794;-1.066;2022-08-03T06:42:58;5.60;;;2.00;;
35558;SDS011;21661;50.794;-1.066;2022-08-03T06:45:25;8.55;;;2.00;;
35558;SDS011;21661;50.794;-1.066;2022-08-03T06:48:05;7.53;;;2.22;;
35558;SDS011;21661;50.794;-1.066;2022-08-03T06:50:36;6.22;;;1.85;;
35558;SDS011;21661;50.794;-1.066;2022-08-03T06:53:03;8.48;;;2.15;;
35558;SDS011;21661;50.794;-1.066;2022-08-03T06:55:30;5.45;;;2.05;;
35558;SDS011;21661;50.794;-1.066;2022-08-03T06:57:56;5.18;;;1.65;;
35558;SDS011;21661;50.794;-1.066;2022-08-03T07:00:22;11.23;;;2.05;;
35558;SDS011;21661;50.794;-1.066;2022-08-03T07:02:48;6.25;;;1.67;;
35558;SDS011;21661;50.794;-1.066;2022-08-03T07:05:14;9.68;;;2.08;;
35558;SDS011;21661;50.794;-1.066;2022-08-03T07:07:40;5.22;;;1.73;;
35558;SDS011;21661;50.794;-1.066;2022-08-03T07:10:06;10.07;;;2.17;;
35558;SDS011;21661;50.794;-1.066;2022-08-03T07:12:33;8.15;;;2.50;;
35558;SDS011;21661;50.794;-1.066;2022-08-03T07:14:59;10.43;;;2.50;;
35558;SDS011;21661;50.794;-1.066;2022-08-03T07:17:26;10.20;;;3.45;;
35558;SDS011;21661;50.794;-1.066;2022-08-03T07:19:53;11.30;;;2.92;;
35558;SDS011;21661;50.794;-1.066;2022-08-03T07:22:18;9.10;;;3.05;;
35558;SDS011;21661;50.794;-1.066;2022-08-03T07:24:44;8.43;;;3.35;;
35558;SDS011;21661;50.794;-1.066;2022-08-03T07:27:11;7.55;;;3.17;;
35558;SDS011;21661;50.794;-1.066;2022-08-03T07:29:37;10.35;;;3.63;;
35558;SDS011;21661;50.794;-1.066;2022-08-03T07:32:03;11.10;;;4.22;;
35558;SDS011;21661;50.794;-1.066;2022-08-03T07:34:29;12.02;;;3.80;;
35558;SDS011;21661;50.794;-1.066;2022-08-03T07:36:55;9.25;;;3.30;;
35558;SDS011;21661;50.794;-1.066;2022-08-03T07:39:21;13.00;;;3.65;;
35558;SDS011;21661;50.794;-1.066;2022-08-03T07:41:47;8.00;;;3.15;;
35558;SDS011;21661;50.794;-1.066;2022-08-03T07:44:15;8.10;;;3.13;;
35558;SDS011;21661;50.794;-1.066;2022-08-03T07:46:41;7.60;;;2.88;;
35558;SDS011;21661;50.794;-1.066;2022-08-03T07:49:07;10.20;;;3.50;;
35558;SDS011;21661;50.794;-1.066;2022-08-03T07:51:33;10.80;;;3.38;;
35558;SDS011;21661;50.794;-1.066;2022-08-03T07:53:59;11.73;;;3.35;;
35558;SDS011;21661;50.794;-1.066;2022-08-03T07:56:25;8.57;;;2.65;;
35558;SDS011;21661;50.794;-1.066;2022-08-03T07:58:51;12.32;;;2.58;;
35558;SDS011;21661;50.794;-1.066;2022-08-03T08:01:17;9.30;;;2.95;;
35558;SDS011;21661;50.794;-1.066;2022-08-03T08:03:44;10.43;;;3.08;;
35558;SDS011;21661;50.794;-1.066;2022-08-03T08:06:10;11.45;;;3.20;;
35558;SDS011;21661;50.794;-1.066;2022-08-03T08:08:37;10.73;;;3.33;;
35558;SDS011;21661;50.794;-1.066;2022-08-03T08:11:03;11.57;;;3.33;;
35558;SDS011;21661;50.794;-1.066;2022-08-03T08:13:29;10.65;;;2.67;;
35558;SDS011;21661;50.794;-1.066;2022-08-03T08:15:55;10.27;;;2.65;;
35558;SDS011;21661;50.794;-1.066;2022-08-03T08:18:21;9.30;;;2.38;;
35558;SDS011;21661;50.794;-1.066;2022-08-03T08:20:48;10.07;;;2.33;;
35558;SDS011;21661;50.794;-1.066;2022-08-03T08:23:14;10.13;;;2.90;;
35558;SDS011;21661;50.794;-1.066;2022-08-03T08:25:41;6.18;;;2.20;;
35558;SDS011;21661;50.794;-1.066;2022-08-03T08:28:07;7.72;;;2.20;;
35558;SDS011;21661;50.794;-1.066;2022-08-03T08:30:32;9.23;;;2.38;;
35558;SDS011;21661;50.794;-1.066;2022-08-03T08:32:58;10.15;;;2.28;;
35558;SDS011;21661;50.794;-1.066;2022-08-03T08:35:24;11.05;;;2.70;;
35558;SDS011;21661;50.794;-1.066;2022-08-03T08:37:50;6.82;;;2.17;;
35558;SDS011;21661;50.794;-1.066;2022-08-03T08:40:16;7.07;;;2.40;;
35558;SDS011;21661;50.794;-1.066;2022-08-03T08:42:44;9.82;;;2.85;;
35558;SDS011;21661;50.794;-1.066;2022-08-03T08:45:11;13.18;;;2.83;;
35558;SDS011;21661;50.794;-1.066;2022-08-03T08:47:39;6.80;;;2.47;;
35558;SDS011;21661;50.794;-1.066;2022-08-03T08:50:09;12.50;;;2.47;;
35558;SDS011;21661;50.794;-1.066;2022-08-03T08:52:35;15.85;;;2.60;;
35558;SDS011;21661;50.794;-1.066;2022-08-03T08:55:04;9.30;;;2.50;;
35558;SDS011;21661;50.794;-1.066;2022-08-03T08:57:35;10.18;;;2.65;;
35558;SDS011;21661;50.794;-1.066;2022-08-03T09:00:04;7.55;;;2.70;;
35558;SDS011;21661;50.794;-1.066;2022-08-03T09:02:37;7.43;;;2.15;;
35558;SDS011;21661;50.794;-1.066;2022-08-03T09:05:03;10.40;;;2.25;;
35558;SDS011;21661;50.794;-1.066;2022-08-03T09:07:29;9.50;;;2.72;;
35558;SDS011;21661;50.794;-1.066;2022-08-03T09:09:55;8.13;;;2.45;;
35558;SDS011;21661;50.794;-1.066;2022-08-03T09:12:21;11.35;;;2.80;;
35558;SDS011;21661;50.794;-1.066;2022-08-03T09:14:47;8.52;;;2.35;;
35558;SDS011;21661;50.794;-1.066;2022-08-03T09:17:13;9.77;;;2.50;;
35558;SDS011;21661;50.794;-1.066;2022-08-03T09:19:39;7.88;;;2.58;;
35558;SDS011;21661;50.794;-1.066;2022-08-03T09:22:13;12.85;;;2.40;;
35558;SDS011;21661;50.794;-1.066;2022-08-03T09:25:00;11.82;;;3.47;;
35558;SDS011;21661;50.794;-1.066;2022-08-03T09:27:28;11.65;;;2.88;;
35558;SDS011;21661;50.794;-1.066;2022-08-03T09:30:05;9.20;;;3.45;;
35558;SDS011;21661;50.794;-1.066;2022-08-03T09:32:41;10.00;;;3.35;;
35558;SDS011;21661;50.794;-1.066;2022-08-03T09:35:09;11.25;;;3.13;;
35558;SDS011;21661;50.794;-1.066;2022-08-03T09:37:35;7.85;;;2.85;;
35558;SDS011;21661;50.794;-1.066;2022-08-03T09:40:02;11.52;;;2.85;;
35558;SDS011;21661;50.794;-1.066;2022-08-03T09:42:28;10.15;;;2.80;;
35558;SDS011;21661;50.794;-1.066;2022-08-03T09:44:54;12.20;;;3.13;;
35558;SDS011;21661;50.794;-1.066;2022-08-03T09:49:59;5.57;;;2.40;;
35558;SDS011;21661;50.794;-1.066;2022-08-03T09:52:31;12.80;;;3.05;;
35558;SDS011;21661;50.794;-1.066;2022-08-03T09:55:02;9.95;;;2.75;;
35558;SDS011;21661;50.794;-1.066;2022-08-03T09:57:33;7.70;;;2.70;;
35558;SDS011;21661;50.794;-1.066;2022-08-03T10:00:06;6.88;;;2.33;;
35558;SDS011;21661;50.794;-1.066;2022-08-03T10:02:37;9.02;;;2.30;;
35558;SDS011;21661;50.794;-1.066;2022-08-03T10:05:04;8.45;;;2.10;;
35558;SDS011;21661;50.794;-1.066;2022-08-03T10:07:40;11.75;;;2.47;;
35558;SDS011;21661;50.794;-1.066;2022-08-03T10:10:07;8.85;;;2.63;;
35558;SDS011;21661;50.794;-1.066;2022-08-03T10:12:34;8.60;;;2.40;;
35558;SDS011;21661;50.794;-1.066;2022-08-03T10:15:01;11.25;;;2.15;;
35558;SDS011;21661;50.794;-1.066;2022-08-03T10:17:28;10.98;;;3.00;;
35558;SDS011;21661;50.794;-1.066;2022-08-03T10:19:53;10.57;;;2.53;;
35558;SDS011;21661;50.794;-1.066;2022-08-03T10:22:22;10.55;;;2.60;;
35558;SDS011;21661;50.794;-1.066;2022-08-03T10:24:52;11.32;;;2.88;;
35558;SDS011;21661;50.794;-1.066;2022-08-03T10:27:24;9.30;;;3.10;;
35558;SDS011;21661;50.794;-1.066;2022-08-03T10:29:52;8.52;;;2.72;;
35558;SDS011;21661;50.794;-1.066;2022-08-03T10:32:21;10.30;;;2.72;;
35558;SDS011;21661;50.794;-1.066;2022-08-03T10:34:58;8.20;;;2.50;;
35558;SDS011;21661;50.794;-1.066;2022-08-03T10:37:29;15.02;;;3.05;;
35558;SDS011;21661;50.794;-1.066;2022-08-03T10:39:57;10.45;;;2.38;;
35558;SDS011;21661;50.794;-1.066;2022-08-03T10:42:25;10.13;;;2.78;;
35558;SDS011;21661;50.794;-1.066;2022-08-03T10:44:55;8.25;;;2.60;;
35558;SDS011;21661;50.794;-1.066;2022-08-03T10:47:29;8.23;;;2.20;;
35558;SDS011;21661;50.794;-1.066;2022-08-03T10:49:55;8.00;;;3.08;;
35558;SDS011;21661;50.794;-1.066;2022-08-03T10:52:21;7.55;;;2.60;;
35558;SDS011;21661;50.794;-1.066;2022-08-03T10:54:47;11.00;;;2.72;;
35558;SDS011;21661;50.794;-1.066;2022-08-03T10:57:41;8.32;;;2.45;;
35558;SDS011;21661;50.794;-1.066;2022-08-03T11:00:10;8.20;;;2.47;;
35558;SDS011;21661;50.794;-1.066;2022-08-03T11:05:44;6.03;;;2.40;;
35558;SDS011;21661;50.794;-1.066;2022-08-03T11:08:25;8.20;;;2.35;;
35558;SDS011;21661;50.794;-1.066;2022-08-03T11:10:54;8.80;;;2.25;;
35558;SDS011;21661;50.794;-1.066;2022-08-03T11:13:24;8.15;;;2.65;;
35558;SDS011;21661;50.794;-1.066;2022-08-03T11:15:55;6.93;;;2.20;;
35558;SDS011;21661;50.794;-1.066;2022-08-03T11:18:23;7.70;;;2.65;;
35558;SDS011;21661;50.794;-1.066;2022-08-03T11:20:55;7.18;;;2.20;;
35558;SDS011;21661;50.794;-1.066;2022-08-03T11:23:38;7.47;;;2.65;;
35558;SDS011;21661;50.794;-1.066;2022-08-03T11:28:37;10.27;;;3.25;;
35558;SDS011;21661;50.794;-1.066;2022-08-03T11:34:10;6.80;;;2.47;;
35558;SDS011;21661;50.794;-1.066;2022-08-03T11:39:41;7.28;;;2.60;;
35558;SDS011;21661;50.794;-1.066;2022-08-03T11:42:51;7.63;;;2.35;;
35558;SDS011;21661;50.794;-1.066;2022-08-03T11:44:59;7.30;;;2.47;;
35558;SDS011;21661;50.794;-1.066;2022-08-03T11:47:26;9.75;;;2.40;;
35558;SDS011;21661;50.794;-1.066;2022-08-03T11:49:53;11.65;;;2.45;;
35558;SDS011;21661;50.794;-1.066;2022-08-03T11:52:22;9.30;;;2.60;;
35558;SDS011;21661;50.794;-1.066;2022-08-03T11:54:52;9.52;;;2.95;;
35558;SDS011;21661;50.794;-1.066;2022-08-03T11:57:32;12.30;;;3.15;;
35558;SDS011;21661;50.794;-1.066;2022-08-03T11:59:58;12.82;;;3.00;;
35558;SDS011;21661;50.794;-1.066;2022-08-03T12:02:24;11.82;;;2.60;;
35558;SDS011;21661;50.794;-1.066;2022-08-03T12:04:54;12.13;;;2.88;;
35558;SDS011;21661;50.794;-1.066;2022-08-03T12:07:27;10.65;;;2.63;;
35558;SDS011;21661;50.794;-1.066;2022-08-03T12:12:38;10.65;;;3.45;;
35558;SDS011;21661;50.794;-1.066;2022-08-03T12:15:07;11.70;;;2.92;;
35558;SDS011;21661;50.794;-1.066;2022-08-03T12:17:33;13.18;;;2.88;;
35558;SDS011;21661;50.794;-1.066;2022-08-03T12:20:00;7.82;;;2.83;;
35558;SDS011;21661;50.794;-1.066;2022-08-03T12:22:30;11.63;;;3.53;;
35558;SDS011;21661;50.794;-1.066;2022-08-03T12:25:01;9.52;;;2.90;;
35558;SDS011;21661;50.794;-1.066;2022-08-03T12:27:34;9.43;;;2.38;;
35558;SDS011;21661;50.794;-1.066;2022-08-03T12:30:00;11.63;;;3.17;;
35558;SDS011;21661;50.794;-1.066;2022-08-03T12:32:27;10.38;;;3.03;;
35558;SDS011;21661;50.794;-1.066;2022-08-03T12:34:54;7.50;;;2.53;;
35558;SDS011;21661;50.794;-1.066;2022-08-03T12:37:24;9.95;;;3.08;;
35558;SDS011;21661;50.794;-1.066;2022-08-03T12:39:51;9.88;;;3.20;;
35558;SDS011;21661;50.794;-1.066;2022-08-03T12:42:20;12.95;;;2.88;;
35558;SDS011;21661;50.794;-1.066;2022-08-03T12:44:53;11.35;;;2.95;;
35558;SDS011;21661;50.794;-1.066;2022-08-03T12:47:19;11.30;;;2.97;;
35558;SDS011;21661;50.794;-1.066;2022-08-03T12:49:45;8.85;;;2.65;;
35558;SDS011;21661;50.794;-1.066;2022-08-03T12:52:15;12.18;;;2.95;;
35558;SDS011;21661;50.794;-1.066;2022-08-03T12:54:42;16.27;;;3.33;;
35558;SDS011;21661;50.794;-1.066;2022-08-03T12:57:21;10.57;;;3.03;;
35558;SDS011;21661;50.794;-1.066;2022-08-03T12:59:47;7.65;;;2.55;;
35558;SDS011;21661;50.794;-1.066;2022-08-03T13:04:39;13.73;;;3.22;;
35558;SDS011;21661;50.794;-1.066;2022-08-03T13:07:05;11.38;;;3.03;;
35558;SDS011;21661;50.794;-1.066;2022-08-03T13:09:43;10.80;;;2.95;;
35558;SDS011;21661;50.794;-1.066;2022-08-03T13:12:10;11.90;;;2.50;;
35558;SDS011;21661;50.794;-1.066;2022-08-03T13:14:43;11.90;;;3.42;;
35558;SDS011;21661;50.794;-1.066;2022-08-03T13:17:10;13.25;;;3.28;;
35558;SDS011;21661;50.794;-1.066;2022-08-03T13:19:37;10.93;;;2.45;;
35558;SDS011;21661;50.794;-1.066;2022-08-03T13:22:19;6.75;;;2.38;;
35558;SDS011;21661;50.794;-1.066;2022-08-03T13:24:48;9.80;;;2.50;;
35558;SDS011;21661;50.794;-1.066;2022-08-03T13:27:15;8.93;;;2.75;;
35558;SDS011;21661;50.794;-1.066;2022-08-03T13:29:40;10.60;;;3.03;;
35558;SDS011;21661;50.794;-1.066;2022-08-03T13:32:07;8.98;;;2.40;;
35558;SDS011;21661;50.794;-1.066;2022-08-03T13:34:33;10.18;;;3.05;;
35558;SDS011;21661;50.794;-1.066;2022-08-03T13:36:59;8.75;;;2.50;;
35558;SDS011;21661;50.794;-1.066;2022-08-03T13:39:25;10.50;;;2.70;;
35558;SDS011;21661;50.794;-1.066;2022-08-03T13:41:51;5.80;;;2.40;;
35558;SDS011;21661;50.794;-1.066;2022-08-03T13:44:17;10.65;;;2.70;;
35558;SDS011;21661;50.794;-1.066;2022-08-03T13:46:43;9.52;;;2.55;;
35558;SDS011;21661;50.794;-1.066;2022-08-03T13:49:09;9.13;;;3.17;;
35558;SDS011;21661;50.794;-1.066;2022-08-03T13:51:35;10.82;;;3.13;;
35558;SDS011;21661;50.794;-1.066;2022-08-03T13:54:02;6.50;;;2.67;;
35558;SDS011;21661;50.794;-1.066;2022-08-03T13:56:28;7.90;;;2.70;;
35558;SDS011;21661;50.794;-1.066;2022-08-03T13:58:55;12.48;;;2.75;;
35558;SDS011;21661;50.794;-1.066;2022-08-03T14:01:22;12.93;;;2.85;;
35558;SDS011;21661;50.794;-1.066;2022-08-03T14:03:48;8.57;;;2.88;;
35558;SDS011;21661;50.794;-1.066;2022-08-03T14:06:16;10.93;;;3.00;;
35558;SDS011;21661;50.794;-1.066;2022-08-03T14:08:42;10.05;;;2.63;;
35558;SDS011;21661;50.794;-1.066;2022-08-03T14:11:09;11.23;;;3.08;;
35558;SDS011;21661;50.794;-1.066;2022-08-03T14:13:35;9.48;;;2.67;;
35558;SDS011;21661;50.794;-1.066;2022-08-03T14:16:02;11.48;;;2.55;;
35558;SDS011;21661;50.794;-1.066;2022-08-03T14:18:27;11.18;;;2.55;;
35558;SDS011;21661;50.794;-1.066;2022-08-03T14:20:53;10.88;;;2.60;;
35558;SDS011;21661;50.794;-1.066;2022-08-03T14:23:19;12.65;;;2.50;;
35558;SDS011;21661;50.794;-1.066;2022-08-03T14:25:45;13.23;;;2.60;;
35558;SDS011;21661;50.794;-1.066;2022-08-03T14:28:11;12.57;;;2.70;;
35558;SDS011;21661;50.794;-1.066;2022-08-03T14:30:37;10.20;;;2.40;;
35558;SDS011;21661;50.794;-1.066;2022-08-03T14:33:02;7.75;;;2.00;;
35558;SDS011;21661;50.794;-1.066;2022-08-03T14:35:28;12.48;;;2.38;;
35558;SDS011;21661;50.794;-1.066;2022-08-03T14:37:54;9.32;;;2.88;;
35558;SDS011;21661;50.794;-1.066;2022-08-03T14:40:19;5.07;;;2.20;;
35558;SDS011;21661;50.794;-1.066;2022-08-03T14:42:45;8.05;;;2.25;;
35558;SDS011;21661;50.794;-1.066;2022-08-03T14:45:11;10.95;;;2.17;;
35558;SDS011;21661;50.794;-1.066;2022-08-03T14:47:37;6.10;;;2.33;;
35558;SDS011;21661;50.794;-1.066;2022-08-03T14:50:04;8.43;;;2.30;;
35558;SDS011;21661;50.794;-1.066;2022-08-03T14:52:30;8.65;;;2.30;;
35558;SDS011;21661;50.794;-1.066;2022-08-03T14:54:57;10.32;;;2.55;;
35558;SDS011;21661;50.794;-1.066;2022-08-03T14:57:23;11.80;;;2.67;;
35558;SDS011;21661;50.794;-1.066;2022-08-03T14:59:49;6.82;;;2.20;;
35558;SDS011;21661;50.794;-1.066;2022-08-03T15:02:14;8.38;;;2.15;;
35558;SDS011;21661;50.794;-1.066;2022-08-03T15:04:40;5.72;;;2.28;;
35558;SDS011;21661;50.794;-1.066;2022-08-03T15:07:06;6.95;;;2.17;;
35558;SDS011;21661;50.794;-1.066;2022-08-03T15:09:31;8.50;;;2.20;;
35558;SDS011;21661;50.794;-1.066;2022-08-03T15:11:57;7.25;;;2.20;;
35558;SDS011;21661;50.794;-1.066;2022-08-03T15:14:23;6.82;;;1.77;;
35558;SDS011;21661;50.794;-1.066;2022-08-03T15:16:49;9.70;;;2.55;;